Adventuress — WCX8691 — position and weather

sailwx.info

Track history (hours):
 
Tides and Currents Weather Stations Pressure Air Temp Water Temp Dewpoint Dewpoint Depression Visibility Wind Speed Wind Dir Waves Ship Positions

Adventuress (United States)

Ship's website: http://www.soundexp.org/

Owner: SOUND EXPERIENCE, PORT TOWNSEND, WA. More information available from US FCC via Universal Licensing System and Coast Guard Vessel Documentation Center.

Last reported at 2015-Apr-25 14:18 UTC. Time now 2015-Apr-28 18:22 UTC.
Position N 47°16' W 122°33'.

Length 43 m.

Type: Passenger vessel. MMSI: 367323180.

Date/timePositionNaut miles runAvg speedWind from/ knotsBaromVisibWave heightAir tempDewpointWater temp
2015-Apr-25 14:18N 47°16' W 122°33'4 5.8
2015-Apr-25 13:32N 47°20' W 122°29'4 4.2
2015-Apr-25 12:33N 47°24' W 122°27'0 0.0
2015-Apr-25 11:33N 47°24' W 122°27'0 0.0
2015-Apr-25 10:33N 47°24' W 122°27'0 0.0
2015-Apr-25 09:33N 47°24' W 122°27'0 0.0
2015-Apr-25 08:33N 47°24' W 122°27'0 0.0
2015-Apr-25 07:33N 47°24' W 122°27'0 0.0
2015-Apr-25 06:33N 47°24' W 122°27'0 0.0
2015-Apr-25 05:30N 47°24' W 122°27'0 0.0
2015-Apr-25 04:33N 47°24' W 122°27'0 0.0
2015-Apr-25 03:33N 47°24' W 122°27'0 0.0
2015-Apr-25 02:33N 47°24' W 122°27'0 0.0
2015-Apr-25 01:33N 47°24' W 122°27'0 0.0
2015-Apr-25 00:33N 47°24' W 122°27'0 0.0
2015-Apr-24 23:33N 47°24' W 122°27'1 1.1
2015-Apr-24 22:33N 47°23' W 122°28'2 2.0
2015-Apr-24 21:33N 47°21' W 122°26'5 5.2
2015-Apr-24 20:33N 47°25' W 122°22'6 5.8
2015-Apr-24 19:33N 47°31' W 122°26'2 2.0
2015-Apr-24 18:33N 47°32' W 122°27'2 1.9
2015-Apr-24 17:31N 47°34' W 122°25'4 0.2
2015-Apr-23 20:28N 47°37' W 122°29'4 4.8
2015-Apr-23 19:33N 47°41' W 122°25'0 0.3
2015-Apr-23 18:33N 47°41' W 122°24'0 0.0
2015-Apr-23 17:33N 47°41' W 122°24'6 2.6
2015-Apr-23 15:24N 47°43' W 122°32'0 0.0
2015-Apr-23 14:33N 47°43' W 122°32'0 0.0
2015-Apr-23 11:18N 47°43' W 122°32'0 0.0
2015-Apr-23 10:21N 47°43' W 122°32'2 1.0
2015-Apr-23 08:26N 47°45' W 122°32'0 0.0
2015-Apr-23 07:32N 47°45' W 122°32'0 0.0
2015-Apr-23 03:23N 47°45' W 122°32'2 0.8
2015-Apr-23 01:33N 47°44' W 122°30'7 6.6
2015-Apr-23 00:33N 47°51' W 122°30'39 5.4
2015-Apr-22 17:13N 48°28' W 122°48'3 0.2
2015-Apr-21 22:10N 48°31' W 122°50'1 2.1
2015-Apr-21 21:29N 48°32' W 122°50'3 2.8
2015-Apr-21 20:33N 48°35' W 122°50'7 0.1
2015-Apr-19 21:12N 48°33' W 122°40'2 3.0
2015-Apr-19 20:33N 48°31' W 122°40'5 2.0
2015-Apr-19 18:08N 48°32' W 122°47'3 0.4
2015-Apr-19 11:21N 48°32' W 122°51'0 0.0
2015-Apr-19 05:21N 48°32' W 122°51'1 0.1
2015-Apr-18 21:27N 48°32' W 122°50'17 0.4
2015-Apr-16 22:05N 48°38' W 123°14'1 1.6
2015-Apr-16 21:29N 48°38' W 123°13'1 0.6
2015-Apr-16 20:17N 48°37' W 123°13'11 0.6
2015-Apr-16 02:25N 48°35' W 122°56'12 6.2
2015-Apr-16 00:24N 48°35' W 122°37'4 3.7
2015-Apr-15 23:22N 48°31' W 122°36'0 0.0
2015-Apr-15 22:28N 48°31' W 122°36'0 0.0
2015-Apr-15 21:28N 48°31' W 122°36'0 0.0
2015-Apr-15 20:22N 48°31' W 122°36'0 0.0
2015-Apr-15 19:22N 48°31' W 122°36'0 0.0
2015-Apr-15 18:28N 48°31' W 122°36'0 0.0
2015-Apr-15 17:28N 48°31' W 122°36'0 0.0
2015-Apr-15 16:28N 48°31' W 122°36'0 0.0
2015-Apr-15 15:28N 48°31' W 122°36'0 0.0
2015-Apr-15 14:28N 48°31' W 122°36'  
Track history (hours):
 
Tides and Currents Weather Stations Pressure Air Temp Water Temp Dewpoint Dewpoint Depression Visibility Wind Speed Wind Dir Waves Ship Positions

Adventuress (United States)

Ship's website: http://www.soundexp.org/

Owner: SOUND EXPERIENCE, PORT TOWNSEND, WA. More information available from US FCC via Universal Licensing System and Coast Guard Vessel Documentation Center.

Last reported at 2015-Apr-25 14:18 UTC. Time now 2015-Apr-28 18:22 UTC.
Position N 47°16' W 122°33'.

Length 43 m.

Type: Passenger vessel. MMSI: 367323180.

Date/timePositionNaut miles runAvg speedWind from/ knotsBaromVisibWave heightAir tempDewpointWater temp
2015-Apr-25 14:18N 47°16' W 122°33'4 5.8
2015-Apr-25 13:32N 47°20' W 122°29'4 4.2
2015-Apr-25 12:33N 47°24' W 122°27'0 0.0
2015-Apr-25 11:33N 47°24' W 122°27'0 0.0
2015-Apr-25 10:33N 47°24' W 122°27'0 0.0
2015-Apr-25 09:33N 47°24' W 122°27'0 0.0
2015-Apr-25 08:33N 47°24' W 122°27'0 0.0
2015-Apr-25 07:33N 47°24' W 122°27'0 0.0
2015-Apr-25 06:33N 47°24' W 122°27'0 0.0
2015-Apr-25 05:30N 47°24' W 122°27'0 0.0
2015-Apr-25 04:33N 47°24' W 122°27'0 0.0
2015-Apr-25 03:33N 47°24' W 122°27'0 0.0
2015-Apr-25 02:33N 47°24' W 122°27'0 0.0
2015-Apr-25 01:33N 47°24' W 122°27'0 0.0
2015-Apr-25 00:33N 47°24' W 122°27'0 0.0
2015-Apr-24 23:33N 47°24' W 122°27'1 1.1
2015-Apr-24 22:33N 47°23' W 122°28'2 2.0
2015-Apr-24 21:33N 47°21' W 122°26'5 5.2
2015-Apr-24 20:33N 47°25' W 122°22'6 5.8
2015-Apr-24 19:33N 47°31' W 122°26'2 2.0
2015-Apr-24 18:33N 47°32' W 122°27'2 1.9
2015-Apr-24 17:31N 47°34' W 122°25'4 0.2
2015-Apr-23 20:28N 47°37' W 122°29'4 4.8
2015-Apr-23 19:33N 47°41' W 122°25'0 0.3
2015-Apr-23 18:33N 47°41' W 122°24'0 0.0
2015-Apr-23 17:33N 47°41' W 122°24'6 2.6
2015-Apr-23 15:24N 47°43' W 122°32'0 0.0
2015-Apr-23 14:33N 47°43' W 122°32'0 0.0
2015-Apr-23 11:18N 47°43' W 122°32'0 0.0
2015-Apr-23 10:21N 47°43' W 122°32'2 1.0
2015-Apr-23 08:26N 47°45' W 122°32'0 0.0
2015-Apr-23 07:32N 47°45' W 122°32'0 0.0
2015-Apr-23 03:23N 47°45' W 122°32'2 0.8
2015-Apr-23 01:33N 47°44' W 122°30'7 6.6
2015-Apr-23 00:33N 47°51' W 122°30'39 5.4
2015-Apr-22 17:13N 48°28' W 122°48'3 0.2
2015-Apr-21 22:10N 48°31' W 122°50'1 2.1
2015-Apr-21 21:29N 48°32' W 122°50'3 2.8
2015-Apr-21 20:33N 48°35' W 122°50'7 0.1
2015-Apr-19 21:12N 48°33' W 122°40'2 3.0
2015-Apr-19 20:33N 48°31' W 122°40'5 2.0
2015-Apr-19 18:08N 48°32' W 122°47'3 0.4
2015-Apr-19 11:21N 48°32' W 122°51'0 0.0
2015-Apr-19 05:21N 48°32' W 122°51'1 0.1
2015-Apr-18 21:27N 48°32' W 122°50'17 0.4
2015-Apr-16 22:05N 48°38' W 123°14'1 1.6
2015-Apr-16 21:29N 48°38' W 123°13'1 0.6
2015-Apr-16 20:17N 48°37' W 123°13'11 0.6
2015-Apr-16 02:25N 48°35' W 122°56'12 6.2
2015-Apr-16 00:24N 48°35' W 122°37'4 3.7
2015-Apr-15 23:22N 48°31' W 122°36'0 0.0
2015-Apr-15 22:28N 48°31' W 122°36'0 0.0
2015-Apr-15 21:28N 48°31' W 122°36'0 0.0
2015-Apr-15 20:22N 48°31' W 122°36'0 0.0
2015-Apr-15 19:22N 48°31' W 122°36'0 0.0
2015-Apr-15 18:28N 48°31' W 122°36'0 0.0
2015-Apr-15 17:28N 48°31' W 122°36'0 0.0
2015-Apr-15 16:28N 48°31' W 122°36'0 0.0
2015-Apr-15 15:28N 48°31' W 122°36'0 0.0
2015-Apr-15 14:28N 48°31' W 122°36'  

Dump ship's entire track history